Time;durP1;ratioP1;P1;durP2;ratioP2;P2;SDS_P1;SDS_P2;PMS_P1;PMS_P2;Temp;Humidity;BMP_temperature;BMP_pressure;BME280_temperature;BME280_humidity;BME280_pressure;Samples;Min_cycle;Max_cycle;Signal;HPM_P1;HPM_P2
2023/01/02 00:00:55;;;;;;;12.27;7.73;;;;;;;;;;5048488;28;20225;-24
2023/01/02 00:03:22;;;;;;;12.47;8.43;;;;;;;;;;5052460;28;20206;-27
2023/01/02 00:05:49;;;;;;;12.10;7.93;;;;;;;;;;5047785;28;20202;-27
2023/01/02 00:08:16;;;;;;;11.63;7.57;;;;;;;;;;5052017;28;20202;-25
2023/01/02 00:10:45;;;;;;;13.83;7.97;;;;;;;;;;5051733;28;20236;-25
2023/01/02 00:13:12;;;;;;;11.27;7.10;;;;;;;;;;5041326;28;20241;-27
2023/01/02 00:15:39;;;;;;;9.77;7.60;;;;;;;;;;5048013;28;20212;-25
2023/01/02 00:18:06;;;;;;;11.33;7.87;;;;;;;;;;5052674;28;20198;-28
2023/01/02 00:20:34;;;;;;;12.33;8.23;;;;;;;;;;5052384;28;20216;-25
2023/01/02 00:23:01;;;;;;;10.63;7.30;;;;;;;;;;5045350;28;20213;-25
2023/01/02 00:25:28;;;;;;;12.40;7.60;;;;;;;;;;5051050;28;20224;-27
2023/01/02 00:27:57;;;;;;;12.53;8.17;;;;;;;;;;5044942;28;20212;-27
2023/01/02 00:30:24;;;;;;;11.33;7.27;;;;;;;;;;5045002;28;20217;-26
2023/01/02 00:32:51;;;;;;;11.00;6.97;;;;;;;;;;5051466;28;20229;-26
2023/01/02 00:35:18;;;;;;;12.30;7.50;;;;;;;;;;5050665;28;20213;-24
2023/01/02 00:37:45;;;;;;;11.23;7.57;;;;;;;;;;5040613;28;20209;-27
2023/01/02 00:40:13;;;;;;;12.17;8.40;;;;;;;;;;5047250;28;20715;-27
2023/01/02 00:42:40;;;;;;;11.70;7.80;;;;;;;;;;5047946;28;20284;-27
2023/01/02 00:45:10;;;;;;;13.57;7.77;;;;;;;;;;5048189;28;20206;-26
2023/01/02 00:47:37;;;;;;;14.73;7.57;;;;;;;;;;5052612;28;20217;-26
2023/01/02 00:50:04;;;;;;;9.33;6.17;;;;;;;;;;5053194;28;20208;-26
2023/01/02 00:52:31;;;;;;;11.10;7.13;;;;;;;;;;5047039;28;20230;-27
2023/01/02 00:54:59;;;;;;;11.10;7.27;;;;;;;;;;5052078;28;20203;-25
2023/01/02 00:57:26;;;;;;;12.70;7.43;;;;;;;;;;5046812;28;20207;-26
2023/01/02 00:59:53;;;;;;;12.90;7.77;;;;;;;;;;5047896;28;20209;-26
2023/01/02 01:02:21;;;;;;;9.07;7.00;;;;;;;;;;5052120;28;20218;-28
2023/01/02 01:04:48;;;;;;;12.57;7.43;;;;;;;;;;5049973;28;20213;-26
2023/01/02 01:07:15;;;;;;;9.27;7.33;;;;;;;;;;5045510;28;20211;-25
2023/01/02 01:09:43;;;;;;;8.27;6.50;;;;;;;;;;5050934;28;20289;-25
2023/01/02 01:12:10;;;;;;;11.30;7.03;;;;;;;;;;5048753;28;20241;-27
2023/01/02 01:14:37;;;;;;;9.67;6.90;;;;;;;;;;5050037;28;20557;-25
2023/01/02 01:17:04;;;;;;;11.17;7.17;;;;;;;;;;5051437;28;20198;-28
2023/01/02 01:19:33;;;;;;;12.10;7.70;;;;;;;;;;5051148;28;20221;-26
2023/01/02 01:22:00;;;;;;;8.10;6.50;;;;;;;;;;5043474;28;20225;-26
2023/01/02 01:24:27;;;;;;;10.60;7.10;;;;;;;;;;5051602;28;20229;-28
2023/01/02 01:26:54;;;;;;;9.97;7.17;;;;;;;;;;5049952;28;20216;-28
2023/01/02 01:29:21;;;;;;;12.03;7.43;;;;;;;;;;5044206;28;20214;-26
2023/01/02 01:31:49;;;;;;;14.10;6.70;;;;;;;;;;5051793;28;20229;-25
2023/01/02 01:34:16;;;;;;;8.87;6.63;;;;;;;;;;5052454;28;20222;-25
2023/01/02 01:36:44;;;;;;;15.03;7.20;;;;;;;;;;5047682;28;20208;-24
2023/01/02 01:39:11;;;;;;;7.67;6.50;;;;;;;;;;5044552;28;20206;-29
2023/01/02 01:41:38;;;;;;;9.90;6.57;;;;;;;;;;5052330;28;20218;-27
2023/01/02 01:44:20;;;;;;;8.70;6.53;;;;;;;;;;5035316;28;20190;-24
2023/01/02 01:46:48;;;;;;;11.70;6.70;;;;;;;;;;5041707;28;20462;-25
2023/01/02 01:49:16;;;;;;;11.27;6.30;;;;;;;;;;5050904;28;20206;-25
2023/01/02 01:51:48;;;;;;;10.60;6.50;;;;;;;;;;5036731;28;20233;-25
2023/01/02 01:54:17;;;;;;;10.17;6.80;;;;;;;;;;5046510;28;20249;-25
2023/01/02 01:56:47;;;;;;;11.23;6.70;;;;;;;;;;5051588;28;20209;-28
2023/01/02 01:59:15;;;;;;;12.00;7.20;;;;;;;;;;5039848;28;20210;-27
2023/01/02 02:01:42;;;;;;;8.47;6.43;;;;;;;;;;5045619;28;20229;-27
2023/01/02 02:04:10;;;;;;;9.40;6.67;;;;;;;;;;5048869;28;20210;-23
2023/01/02 02:06:37;;;;;;;9.00;6.13;;;;;;;;;;5051970;28;20210;-27
2023/01/02 02:09:10;;;;;;;7.70;6.23;;;;;;;;;;5048685;28;20203;-26
2023/01/02 02:11:37;;;;;;;7.07;5.93;;;;;;;;;;5160781;22;20317;-28
2023/01/02 02:14:04;;;;;;;6.40;5.67;;;;;;;;;;5057731;28;20228;-26
2023/01/02 02:16:37;;;;;;;8.13;6.27;;;;;;;;;;5068616;28;20197;-25
2023/01/02 02:19:13;;;;;;;9.80;6.50;;;;;;;;;;5070590;28;20209;-25
2023/01/02 02:21:46;;;;;;;11.67;6.43;;;;;;;;;;5064594;28;20313;-27
2023/01/02 02:24:28;;;;;;;7.70;5.90;;;;;;;;;;5067347;28;20209;-27
2023/01/02 02:27:04;;;;;;;10.57;5.47;;;;;;;;;;5040688;28;20209;-26
2023/01/02 02:29:46;;;;;;;8.30;6.27;;;;;;;;;;5063688;28;20210;-27
2023/01/02 02:32:22;;;;;;;9.20;6.23;;;;;;;;;;5060951;28;20818;-25
2023/01/02 02:34:53;;;;;;;11.53;5.97;;;;;;;;;;5062153;28;20252;-27
2023/01/02 02:37:24;;;;;;;10.10;5.43;;;;;;;;;;5070250;28;20236;-26
2023/01/02 02:39:55;;;;;;;8.03;6.13;;;;;;;;;;5064761;28;20206;-28
2023/01/02 02:42:26;;;;;;;6.43;5.37;;;;;;;;;;5054454;28;20233;-27
2023/01/02 02:44:57;;;;;;;7.87;5.63;;;;;;;;;;5063069;28;20243;-28
2023/01/02 02:47:31;;;;;;;9.17;6.10;;;;;;;;;;5069846;28;20209;-26
2023/01/02 02:50:00;;;;;;;8.87;5.93;;;;;;;;;;5069608;28;20209;-25
2023/01/02 02:52:30;;;;;;;9.10;5.80;;;;;;;;;;5059014;28;20230;-26
2023/01/02 02:54:59;;;;;;;9.20;5.57;;;;;;;;;;5069769;28;20225;-24
2023/01/02 02:57:26;;;;;;;10.07;5.67;;;;;;;;;;5063788;28;20507;-27
2023/01/02 02:59:54;;;;;;;9.27;5.83;;;;;;;;;;5065073;28;20201;-27
2023/01/02 03:02:21;;;;;;;9.73;5.53;;;;;;;;;;5069886;28;20221;-27
2023/01/02 03:04:51;;;;;;;8.63;5.27;;;;;;;;;;5070613;28;20201;-24
2023/01/02 03:07:22;;;;;;;8.20;6.33;;;;;;;;;;5059105;28;20210;-25
2023/01/02 03:09:53;;;;;;;8.13;6.00;;;;;;;;;;5066950;28;20209;-28
2023/01/02 03:12:25;;;;;;;8.43;4.80;;;;;;;;;;5066006;28;20239;-25
2023/01/02 03:14:57;;;;;;;6.73;5.07;;;;;;;;;;5058970;28;20217;-27
2023/01/02 03:17:28;;;;;;;7.70;5.80;;;;;;;;;;5069523;28;20299;-24
2023/01/02 03:19:59;;;;;;;8.73;5.17;;;;;;;;;;5069420;28;20213;-26
2023/01/02 03:22:30;;;;;;;9.30;5.43;;;;;;;;;;5064725;28;20233;-27
2023/01/02 03:24:58;;;;;;;7.60;5.00;;;;;;;;;;5069558;28;20209;-26
2023/01/02 03:27:30;;;;;;;6.93;5.10;;;;;;;;;;5064408;28;20225;-25
2023/01/02 03:30:00;;;;;;;7.20;4.97;;;;;;;;;;5065206;28;20294;-26
2023/01/02 03:32:29;;;;;;;7.00;4.93;;;;;;;;;;5069357;28;20594;-26
2023/01/02 03:35:00;;;;;;;10.20;5.00;;;;;;;;;;5069863;28;20243;-28
2023/01/02 03:37:29;;;;;;;7.73;5.27;;;;;;;;;;5054257;28;20198;-27
2023/01/02 03:39:58;;;;;;;8.10;5.33;;;;;;;;;;5071940;28;20205;-27
2023/01/02 03:42:27;;;;;;;8.17;5.20;;;;;;;;;;5067707;28;20221;-27
2023/01/02 03:44:59;;;;;;;5.23;4.50;;;;;;;;;;5065150;28;20202;-25
2023/01/02 03:47:28;;;;;;;6.97;4.83;;;;;;;;;;5069371;28;20193;-26
2023/01/02 03:49:57;;;;;;;7.87;5.03;;;;;;;;;;5069955;28;20209;-27
2023/01/02 03:52:26;;;;;;;5.43;4.20;;;;;;;;;;5065642;28;20232;-24
2023/01/02 03:54:53;;;;;;;8.03;5.37;;;;;;;;;;5062571;28;20237;-26
2023/01/02 03:57:23;;;;;;;5.73;4.70;;;;;;;;;;5064376;28;20201;-29
2023/01/02 03:59:57;;;;;;;6.00;4.93;;;;;;;;;;5058362;28;20205;-26
2023/01/02 04:02:27;;;;;;;6.10;4.57;;;;;;;;;;5059412;28;20318;-25
2023/01/02 04:04:55;;;;;;;7.90;5.43;;;;;;;;;;5071367;28;20193;-26
2023/01/02 04:07:27;;;;;;;8.33;5.60;;;;;;;;;;5072266;28;20205;-27
2023/01/02 04:09:56;;;;;;;9.67;5.77;;;;;;;;;;5067923;28;20202;-27
2023/01/02 04:12:24;;;;;;;6.90;5.33;;;;;;;;;;5067170;28;20248;-26
2023/01/02 04:14:53;;;;;;;10.03;5.20;;;;;;;;;;5067836;28;20229;-26
2023/01/02 04:17:22;;;;;;;7.00;4.80;;;;;;;;;;5072999;28;20214;-27
2023/01/02 04:19:51;;;;;;;7.47;5.47;;;;;;;;;;5072857;28;20212;-23
2023/01/02 04:22:21;;;;;;;8.13;5.50;;;;;;;;;;5065882;28;20235;-25
2023/01/02 04:24:50;;;;;;;7.73;5.73;;;;;;;;;;5066249;28;20865;-27
2023/01/02 04:27:22;;;;;;;6.93;4.80;;;;;;;;;;5072270;28;20224;-24
2023/01/02 04:29:49;;;;;;;9.30;5.23;;;;;;;;;;5066073;28;20194;-26
2023/01/02 04:32:19;;;;;;;9.10;5.63;;;;;;;;;;5073514;28;20221;-27
2023/01/02 04:34:47;;;;;;;7.17;5.00;;;;;;;;;;5072239;28;20221;-27
2023/01/02 04:37:26;;;;;;;8.37;5.47;;;;;;;;;;5067301;28;20209;-25
2023/01/02 04:39:54;;;;;;;10.20;6.33;;;;;;;;;;5064170;28;20208;-25
2023/01/02 04:42:23;;;;;;;8.40;6.03;;;;;;;;;;5067559;28;20229;-26
2023/01/02 04:44:50;;;;;;;7.80;5.20;;;;;;;;;;5064014;28;20200;-27
2023/01/02 04:47:17;;;;;;;7.97;4.90;;;;;;;;;;5071617;28;20205;-27
2023/01/02 04:49:44;;;;;;;7.67;4.93;;;;;;;;;;5068237;28;20206;-27
2023/01/02 04:52:11;;;;;;;8.07;4.87;;;;;;;;;;5058583;28;20237;-28
2023/01/02 04:54:38;;;;;;;9.90;5.77;;;;;;;;;;5070656;28;20217;-26
2023/01/02 04:57:06;;;;;;;8.47;5.10;;;;;;;;;;5069346;28;20209;-27
2023/01/02 04:59:34;;;;;;;7.77;6.00;;;;;;;;;;5062224;28;20211;-28
2023/01/02 05:02:01;;;;;;;8.90;5.27;;;;;;;;;;5071138;28;20209;-26
2023/01/02 05:04:28;;;;;;;7.20;6.00;;;;;;;;;;5071409;28;20201;-28
2023/01/02 05:06:56;;;;;;;9.27;5.90;;;;;;;;;;5062839;28;20206;-28
2023/01/02 05:09:23;;;;;;;8.33;5.60;;;;;;;;;;5063366;28;20209;-27
2023/01/02 05:11:50;;;;;;;9.17;5.00;;;;;;;;;;5069813;28;20229;-26
2023/01/02 05:14:17;;;;;;;6.77;5.00;;;;;;;;;;5059809;28;20236;-28
2023/01/02 05:16:45;;;;;;;8.97;4.80;;;;;;;;;;5070632;28;20198;-27
2023/01/02 05:19:13;;;;;;;7.23;5.23;;;;;;;;;;5070433;28;20314;-28
2023/01/02 05:24:26;;;;;;;6.50;5.00;;;;;;;;;;5060107;28;20208;-27
2023/01/02 05:26:53;;;;;;;8.83;5.50;;;;;;;;;;5068399;28;20206;-28
2023/01/02 05:29:20;;;;;;;8.00;5.20;;;;;;;;;;5055165;28;20229;-29
2023/01/02 05:31:48;;;;;;;6.83;4.87;;;;;;;;;;5070343;28;20224;-26
2023/01/02 05:34:16;;;;;;;6.10;4.67;;;;;;;;;;5071121;28;20229;-25
2023/01/02 05:36:43;;;;;;;8.97;4.60;;;;;;;;;;5056027;28;20209;-28
2023/01/02 05:39:12;;;;;;;5.60;4.20;;;;;;;;;;5065307;28;20209;-24
2023/01/02 05:41:39;;;;;;;11.37;4.30;;;;;;;;;;5070570;28;20231;-25
2023/01/02 05:44:07;;;;;;;7.90;4.40;;;;;;;;;;5060138;28;20202;-29
2023/01/02 05:46:34;;;;;;;5.13;4.63;;;;;;;;;;5068931;28;20291;-27
2023/01/02 05:49:04;;;;;;;7.13;4.50;;;;;;;;;;5070558;28;20674;-24
2023/01/02 05:51:31;;;;;;;6.03;4.40;;;;;;;;;;5061548;28;20229;-27
2023/01/02 05:53:58;;;;;;;5.60;3.93;;;;;;;;;;5062481;28;20221;-25
2023/01/02 05:56:26;;;;;;;6.60;4.87;;;;;;;;;;5070402;28;20209;-27
2023/01/02 05:58:55;;;;;;;5.50;4.77;;;;;;;;;;5048663;28;20216;-29
2023/01/02 06:01:22;;;;;;;6.93;4.23;;;;;;;;;;5053884;28;20249;-25
2023/01/02 06:03:50;;;;;;;5.30;4.10;;;;;;;;;;5065147;28;20221;-25
2023/01/02 06:06:19;;;;;;;7.87;4.10;;;;;;;;;;5067144;28;20234;-27
2023/01/02 06:08:47;;;;;;;6.63;4.53;;;;;;;;;;5064396;28;20213;-24
2023/01/02 06:11:14;;;;;;;5.70;3.93;;;;;;;;;;5074890;28;20256;-25
2023/01/02 06:13:41;;;;;;;6.07;4.60;;;;;;;;;;5065375;28;20209;-27
2023/01/02 06:16:09;;;;;;;5.47;4.20;;;;;;;;;;5070372;28;20201;-26
2023/01/02 06:18:37;;;;;;;8.60;4.60;;;;;;;;;;5074354;28;20205;-28
2023/01/02 06:21:05;;;;;;;7.43;4.57;;;;;;;;;;5077669;28;20224;-25
2023/01/02 06:23:34;;;;;;;7.00;4.67;;;;;;;;;;5074514;28;20252;-26
2023/01/02 06:26:02;;;;;;;7.87;5.13;;;;;;;;;;5079452;28;20201;-27
2023/01/02 06:28:29;;;;;;;6.37;4.47;;;;;;;;;;5074477;28;20209;-26
2023/01/02 06:30:59;;;;;;;6.63;4.50;;;;;;;;;;5072900;28;20229;-24
2023/01/02 06:33:26;;;;;;;7.43;4.27;;;;;;;;;;5077919;28;20201;-25
2023/01/02 06:35:57;;;;;;;5.93;4.07;;;;;;;;;;5071968;28;20228;-26
2023/01/02 06:38:24;;;;;;;6.07;4.50;;;;;;;;;;5075350;28;20208;-26
2023/01/02 06:40:56;;;;;;;5.93;5.17;;;;;;;;;;5070171;28;20233;-27
2023/01/02 06:43:23;;;;;;;7.13;4.87;;;;;;;;;;5058320;28;20233;-28
2023/01/02 06:45:50;;;;;;;5.80;4.60;;;;;;;;;;5065828;28;20213;-27
2023/01/02 06:48:18;;;;;;;6.43;4.37;;;;;;;;;;5069566;28;20288;-26
2023/01/02 06:50:45;;;;;;;8.23;5.17;;;;;;;;;;5069142;28;20229;-27
2023/01/02 06:53:12;;;;;;;4.40;4.00;;;;;;;;;;5061880;28;20212;-28
2023/01/02 06:55:39;;;;;;;5.33;3.83;;;;;;;;;;5068910;28;20232;-28
2023/01/02 06:58:08;;;;;;;6.97;4.50;;;;;;;;;;5058501;28;20205;-25
2023/01/02 07:00:35;;;;;;;5.17;3.80;;;;;;;;;;5073592;28;20217;-24
2023/01/02 07:03:02;;;;;;;6.00;3.77;;;;;;;;;;5075718;28;20710;-24
2023/01/02 07:05:29;;;;;;;6.87;4.13;;;;;;;;;;5070555;28;20193;-29
2023/01/02 07:07:56;;;;;;;5.33;4.33;;;;;;;;;;5050327;28;20206;-27
2023/01/02 07:10:23;;;;;;;7.27;3.70;;;;;;;;;;5068066;28;20204;-25
2023/01/02 07:12:50;;;;;;;5.90;4.03;;;;;;;;;;5068576;28;20626;-25
2023/01/02 07:15:19;;;;;;;4.53;4.10;;;;;;;;;;5075301;28;20217;-27
2023/01/02 07:17:46;;;;;;;5.87;4.53;;;;;;;;;;5076847;28;20213;-25
2023/01/02 07:20:13;;;;;;;7.23;4.17;;;;;;;;;;5070599;28;20205;-27
2023/01/02 07:22:40;;;;;;;4.93;3.83;;;;;;;;;;5061809;28;20240;-28
2023/01/02 07:25:08;;;;;;;5.43;3.50;;;;;;;;;;5069144;28;20201;-24
2023/01/02 07:27:35;;;;;;;5.97;3.37;;;;;;;;;;5061550;28;20225;-24
2023/01/02 07:30:02;;;;;;;5.93;3.73;;;;;;;;;;5059909;28;20204;-24
2023/01/02 07:32:31;;;;;;;4.47;3.60;;;;;;;;;;5071508;28;20225;-27
2023/01/02 07:34:58;;;;;;;4.27;3.40;;;;;;;;;;5071536;28;20247;-26
2023/01/02 07:37:25;;;;;;;6.23;4.17;;;;;;;;;;5068084;28;20201;-25
2023/01/02 07:39:52;;;;;;;4.33;3.50;;;;;;;;;;5058921;28;20212;-25
2023/01/02 07:42:19;;;;;;;3.63;3.33;;;;;;;;;;5068020;28;20228;-27
2023/01/02 07:44:46;;;;;;;5.27;3.60;;;;;;;;;;5066614;28;20197;-23
2023/01/02 07:47:13;;;;;;;5.07;3.10;;;;;;;;;;5074108;28;20215;-23
2023/01/02 07:49:42;;;;;;;6.23;3.30;;;;;;;;;;5070249;28;20208;-27
2023/01/02 07:52:09;;;;;;;4.23;3.33;;;;;;;;;;5064660;28;20221;-26
2023/01/02 07:54:37;;;;;;;5.30;3.90;;;;;;;;;;5074439;28;20280;-27
2023/01/02 07:57:05;;;;;;;4.10;2.40;;;;;;;;;;5071343;28;20201;-23
2023/01/02 07:59:32;;;;;;;4.17;3.27;;;;;;;;;;5062842;28;20209;-25
2023/01/02 08:01:59;;;;;;;4.30;3.67;;;;;;;;;;5073220;28;20223;-24
2023/01/02 08:04:26;;;;;;;5.30;3.87;;;;;;;;;;5075048;28;20209;-27
2023/01/02 08:06:54;;;;;;;7.27;3.90;;;;;;;;;;5069896;28;20205;-26
2023/01/02 08:09:22;;;;;;;7.80;3.67;;;;;;;;;;5063488;28;20212;-27
2023/01/02 08:11:49;;;;;;;4.63;3.43;;;;;;;;;;5074540;28;20229;-24
2023/01/02 08:14:16;;;;;;;4.80;3.27;;;;;;;;;;5062377;28;20209;-26
2023/01/02 08:16:43;;;;;;;5.60;3.30;;;;;;;;;;5074290;28;20209;-26
2023/01/02 08:19:10;;;;;;;5.37;3.30;;;;;;;;;;5074574;28;20213;-24
2023/01/02 08:21:37;;;;;;;5.10;3.13;;;;;;;;;;5064165;28;20594;-24
2023/01/02 08:24:07;;;;;;;3.40;3.10;;;;;;;;;;5067837;28;20201;-27
2023/01/02 08:26:34;;;;;;;4.57;3.10;;;;;;;;;;5074426;28;20724;-27
2023/01/02 08:29:11;;;;;;;4.27;3.37;;;;;;;;;;5059019;28;20292;-25
2023/01/02 08:31:39;;;;;;;3.07;2.77;;;;;;;;;;5071268;28;20260;-26
2023/01/02 08:34:06;;;;;;;5.17;3.43;;;;;;;;;;5072301;28;20567;-25
2023/01/02 08:36:33;;;;;;;3.37;3.07;;;;;;;;;;5058013;28;20226;-26
2023/01/02 08:39:00;;;;;;;3.87;3.13;;;;;;;;;;5068535;28;20212;-25
2023/01/02 08:41:32;;;;;;;5.27;3.73;;;;;;;;;;5074430;28;20232;-26
2023/01/02 08:43:59;;;;;;;4.03;3.20;;;;;;;;;;5069463;28;20269;-26
2023/01/02 08:46:26;;;;;;;2.83;2.60;;;;;;;;;;5073985;28;20201;-24
2023/01/02 08:48:53;;;;;;;5.00;3.10;;;;;;;;;;5074318;28;20201;-25
2023/01/02 08:51:20;;;;;;;4.70;2.80;;;;;;;;;;5069088;28;20225;-25
2023/01/02 08:53:48;;;;;;;3.70;2.70;;;;;;;;;;5073360;28;20201;-26
2023/01/02 08:56:16;;;;;;;4.70;2.93;;;;;;;;;;5073919;28;20220;-25
2023/01/02 08:58:45;;;;;;;10.30;6.47;;;;;;;;;;5062169;28;20291;-27
2023/01/02 09:01:12;;;;;;;5.27;3.73;;;;;;;;;;5070372;28;20240;-27
2023/01/02 09:03:39;;;;;;;5.80;4.27;;;;;;;;;;5074450;28;20205;-25
2023/01/02 09:06:06;;;;;;;5.90;3.80;;;;;;;;;;5064716;28;20195;-26
2023/01/02 09:08:33;;;;;;;4.53;3.40;;;;;;;;;;5067607;28;20262;-26
2023/01/02 09:11:00;;;;;;;3.80;3.40;;;;;;;;;;5075396;28;20226;-25
2023/01/02 09:13:28;;;;;;;6.17;4.30;;;;;;;;;;5073542;28;20205;-26
2023/01/02 09:15:56;;;;;;;5.67;3.80;;;;;;;;;;5071777;28;20217;-25
2023/01/02 09:18:24;;;;;;;4.70;3.63;;;;;;;;;;5074681;28;20201;-26
2023/01/02 09:20:51;;;;;;;6.27;4.50;;;;;;;;;;5073896;28;20236;-25
2023/01/02 09:23:18;;;;;;;7.07;4.47;;;;;;;;;;5063955;28;20241;-28
2023/01/02 09:25:45;;;;;;;7.03;4.20;;;;;;;;;;5063746;28;20197;-26
2023/01/02 09:28:12;;;;;;;7.57;4.77;;;;;;;;;;5062653;28;20213;-25
2023/01/02 09:30:39;;;;;;;5.70;4.33;;;;;;;;;;5071602;28;20209;-25
2023/01/02 09:33:07;;;;;;;4.23;3.50;;;;;;;;;;5073616;28;20209;-25
2023/01/02 09:35:35;;;;;;;6.80;2.97;;;;;;;;;;5073895;28;20282;-26
2023/01/02 09:38:02;;;;;;;4.10;3.20;;;;;;;;;;5065944;28;20213;-25
2023/01/02 09:40:29;;;;;;;4.27;3.40;;;;;;;;;;5067526;28;20566;-24
2023/01/02 09:42:56;;;;;;;5.63;3.77;;;;;;;;;;5067982;28;20212;-24
2023/01/02 09:45:23;;;;;;;5.27;3.43;;;;;;;;;;5071922;28;20205;-24
2023/01/02 09:47:51;;;;;;;4.23;3.27;;;;;;;;;;5071291;28;20201;-24
2023/01/02 09:50:23;;;;;;;4.97;3.30;;;;;;;;;;5073681;28;20224;-24
2023/01/02 09:52:54;;;;;;;4.50;3.37;;;;;;;;;;5062928;28;20202;-25
2023/01/02 09:55:24;;;;;;;5.60;3.30;;;;;;;;;;5069332;28;20225;-24
2023/01/02 09:57:57;;;;;;;3.87;3.10;;;;;;;;;;5065098;28;20221;-27
2023/01/02 10:00:25;;;;;;;4.50;3.07;;;;;;;;;;5068558;28;20205;-27
2023/01/02 10:02:57;;;;;;;4.00;3.27;;;;;;;;;;5073514;28;20248;-26
2023/01/02 10:05:37;;;;;;;5.63;4.23;;;;;;;;;;5070408;28;20189;-27
2023/01/02 10:08:11;;;;;;;4.90;4.33;;;;;;;;;;5069344;28;20201;-24
2023/01/02 10:10:40;;;;;;;6.23;3.80;;;;;;;;;;5073585;28;20200;-24
2023/01/02 10:13:12;;;;;;;7.40;4.00;;;;;;;;;;5065614;28;20301;-27
2023/01/02 10:15:43;;;;;;;6.07;4.20;;;;;;;;;;5069929;28;20220;-27
2023/01/02 10:18:14;;;;;;;7.13;3.77;;;;;;;;;;5072725;28;20204;-26
2023/01/02 10:20:48;;;;;;;6.03;3.97;;;;;;;;;;5067486;28;20204;-26
2023/01/02 10:23:17;;;;;;;6.10;4.27;;;;;;;;;;5067645;28;20556;-25
2023/01/02 10:25:48;;;;;;;4.97;4.47;;;;;;;;;;5064266;28;20194;-24
2023/01/02 10:28:20;;;;;;;5.80;4.07;;;;;;;;;;5063927;28;20212;-24
2023/01/02 10:30:48;;;;;;;4.67;3.60;;;;;;;;;;5064218;28;20221;-26
2023/01/02 10:33:19;;;;;;;7.60;4.00;;;;;;;;;;5071410;28;20227;-26
2023/01/02 10:35:48;;;;;;;5.00;3.87;;;;;;;;;;5064420;28;20213;-26
2023/01/02 10:38:17;;;;;;;5.10;3.60;;;;;;;;;;5068467;28;20201;-27
2023/01/02 10:40:45;;;;;;;5.53;3.97;;;;;;;;;;5071957;28;20236;-27
2023/01/02 10:43:12;;;;;;;4.87;4.03;;;;;;;;;;5060862;28;20209;-23
2023/01/02 10:45:39;;;;;;;7.23;5.03;;;;;;;;;;5067536;28;20209;-24
2023/01/02 10:48:06;;;;;;;8.07;4.40;;;;;;;;;;5069861;28;20197;-28
2023/01/02 10:50:38;;;;;;;4.97;3.97;;;;;;;;;;5062859;28;20212;-24
2023/01/02 10:53:08;;;;;;;7.87;4.17;;;;;;;;;;5070893;28;20587;-26
2023/01/02 10:55:37;;;;;;;5.43;4.27;;;;;;;;;;5072537;28;20214;-26
2023/01/02 10:58:05;;;;;;;7.80;4.70;;;;;;;;;;5060596;28;20209;-25
2023/01/02 11:00:34;;;;;;;6.03;4.30;;;;;;;;;;5068570;28;20213;-27
2023/01/02 11:03:06;;;;;;;5.07;3.93;;;;;;;;;;5071514;28;20219;-27
2023/01/02 11:05:33;;;;;;;3.93;3.30;;;;;;;;;;5068785;28;20201;-25
2023/01/02 11:08:10;;;;;;;5.17;4.07;;;;;;;;;;5070650;28;20201;-26
2023/01/02 11:10:39;;;;;;;7.77;3.40;;;;;;;;;;5071191;28;20197;-28
2023/01/02 11:13:09;;;;;;;8.57;4.40;;;;;;;;;;5062535;28;20213;-27
2023/01/02 11:15:44;;;;;;;6.57;4.53;;;;;;;;;;5065796;28;20240;-26
2023/01/02 11:18:12;;;;;;;7.93;4.83;;;;;;;;;;5073595;28;20192;-26
2023/01/02 11:20:39;;;;;;;9.53;4.80;;;;;;;;;;5075706;28;20209;-25
2023/01/02 11:23:06;;;;;;;6.07;3.90;;;;;;;;;;5065635;28;20241;-25
2023/01/02 11:25:37;;;;;;;7.17;4.40;;;;;;;;;;5068594;28;20205;-26
2023/01/02 11:28:05;;;;;;;6.40;5.27;;;;;;;;;;5069588;28;20209;-26
2023/01/02 11:30:36;;;;;;;5.33;3.60;;;;;;;;;;5069933;28;20216;-26
2023/01/02 11:33:07;;;;;;;7.43;3.90;;;;;;;;;;5076358;28;20197;-23
2023/01/02 11:35:38;;;;;;;5.67;3.83;;;;;;;;;;5069263;28;20216;-24
2023/01/02 11:38:12;;;;;;;8.57;4.43;;;;;;;;;;5072217;28;20291;-27
2023/01/02 11:40:51;;;;;;;6.27;4.30;;;;;;;;;;5065873;28;20208;-26
2023/01/02 11:46:09;;;;;;;6.93;3.87;;;;;;;;;;5073000;28;20208;-25
2023/01/02 11:48:37;;;;;;;6.67;4.60;;;;;;;;;;5074732;28;20200;-25
2023/01/02 11:51:04;;;;;;;6.60;4.13;;;;;;;;;;5071972;28;20229;-27
2023/01/02 11:53:34;;;;;;;8.67;4.83;;;;;;;;;;5065212;28;20214;-26
2023/01/02 11:56:06;;;;;;;11.83;6.13;;;;;;;;;;5074879;28;20225;-27
2023/01/02 11:58:37;;;;;;;7.83;3.97;;;;;;;;;;5063273;28;20221;-25
2023/01/02 12:01:07;;;;;;;5.80;3.37;;;;;;;;;;5071648;28;20219;-26
2023/01/02 12:03:34;;;;;;;6.77;3.40;;;;;;;;;;5074973;28;20204;-26
2023/01/02 12:06:07;;;;;;;10.50;2.80;;;;;;;;;;5068951;28;20197;-24
2023/01/02 12:08:39;;;;;;;4.27;2.77;;;;;;;;;;5073546;28;20202;-25
2023/01/02 12:11:12;;;;;;;6.47;3.40;;;;;;;;;;5069572;28;20248;-27
2023/01/02 12:13:54;;;;;;;6.80;4.03;;;;;;;;;;5066709;28;20205;-25
2023/01/02 12:16:27;;;;;;;6.07;3.50;;;;;;;;;;5070788;28;20229;-28
2023/01/02 12:19:02;;;;;;;5.57;3.83;;;;;;;;;;5074944;28;20197;-25
2023/01/02 12:21:33;;;;;;;5.63;3.90;;;;;;;;;;5069206;28;20221;-25
2023/01/02 12:24:17;;;;;;;8.30;3.97;;;;;;;;;;5070724;28;20201;-27
2023/01/02 12:26:49;;;;;;;5.13;3.77;;;;;;;;;;5058901;28;20201;-25
2023/01/02 12:29:23;;;;;;;4.43;3.50;;;;;;;;;;5067113;28;20212;-27
2023/01/02 12:31:57;;;;;;;5.70;3.20;;;;;;;;;;5058505;28;20217;-27
2023/01/02 12:34:31;;;;;;;6.60;3.97;;;;;;;;;;5069103;28;20189;-27
2023/01/02 12:37:04;;;;;;;7.30;3.63;;;;;;;;;;5072235;28;20220;-27
2023/01/02 12:39:42;;;;;;;6.17;3.10;;;;;;;;;;5062710;28;20220;-25
2023/01/02 12:42:19;;;;;;;7.67;3.20;;;;;;;;;;5055790;28;20229;-25
2023/01/02 12:44:49;;;;;;;5.93;3.10;;;;;;;;;;5062365;28;20208;-24
2023/01/02 12:47:25;;;;;;;4.20;3.10;;;;;;;;;;5072377;28;20289;-28
2023/01/02 12:49:59;;;;;;;7.73;3.17;;;;;;;;;;5073012;28;20204;-25
2023/01/02 12:52:33;;;;;;;3.97;2.77;;;;;;;;;;5058620;28;20220;-25
2023/01/02 12:55:11;;;;;;;6.73;4.23;;;;;;;;;;5072965;28;20209;-26
2023/01/02 12:57:40;;;;;;;5.80;3.33;;;;;;;;;;5064663;28;20217;-25
2023/01/02 13:00:18;;;;;;;5.70;3.00;;;;;;;;;;5064992;28;20193;-24
2023/01/02 13:02:58;;;;;;;6.80;3.03;;;;;;;;;;5065266;28;20221;-24
2023/01/02 13:05:28;;;;;;;4.07;3.00;;;;;;;;;;5074140;28;20195;-27
2023/01/02 13:07:56;;;;;;;7.90;2.80;;;;;;;;;;5064151;28;20197;-25
2023/01/02 13:10:25;;;;;;;5.83;2.63;;;;;;;;;;5065151;28;20215;-23
2023/01/02 13:12:53;;;;;;;5.37;2.70;;;;;;;;;;5065628;28;20232;-25
2023/01/02 13:15:21;;;;;;;6.30;3.20;;;;;;;;;;5068405;28;20209;-29
2023/01/02 13:17:56;;;;;;;4.80;2.70;;;;;;;;;;5074221;28;20221;-27
2023/01/02 13:20:29;;;;;;;4.47;2.77;;;;;;;;;;5066882;28;20210;-24
2023/01/02 13:23:02;;;;;;;4.70;2.80;;;;;;;;;;5062234;28;20322;-26
2023/01/02 13:25:30;;;;;;;4.03;2.50;;;;;;;;;;5073770;28;20200;-26
2023/01/02 13:27:59;;;;;;;4.63;2.73;;;;;;;;;;5068578;28;20201;-25
2023/01/02 13:30:43;;;;;;;3.87;2.80;;;;;;;;;;5066565;28;20212;-24
2023/01/02 13:33:25;;;;;;;6.43;3.10;;;;;;;;;;5069904;28;20213;-25
2023/01/02 13:35:53;;;;;;;5.47;3.40;;;;;;;;;;5053513;28;20272;-27
2023/01/02 13:38:20;;;;;;;5.80;2.90;;;;;;;;;;5052269;28;20253;-27
2023/01/02 13:40:54;;;;;;;8.43;2.37;;;;;;;;;;5071338;28;20223;-25
2023/01/02 13:43:24;;;;;;;2.60;1.90;;;;;;;;;;5063282;28;20211;-27
2023/01/02 13:45:52;;;;;;;7.10;2.20;;;;;;;;;;5070089;28;20202;-24
2023/01/02 13:48:22;;;;;;;6.63;2.20;;;;;;;;;;5072827;28;20198;-28
2023/01/02 13:50:58;;;;;;;3.90;2.60;;;;;;;;;;5066999;28;20217;-27
2023/01/02 13:53:30;;;;;;;5.10;2.40;;;;;;;;;;5067241;28;20207;-29
2023/01/02 13:56:02;;;;;;;2.67;1.90;;;;;;;;;;5072483;28;20219;-27
2023/01/02 13:58:53;;;;;;;5.80;2.00;;;;;;;;;;5063935;28;20205;-27
2023/01/02 14:01:34;;;;;;;5.03;2.00;;;;;;;;;;5071444;28;20229;-24
2023/01/02 14:04:27;;;;;;;3.20;1.90;;;;;;;;;;5072631;28;20205;-27
2023/01/02 14:06:58;;;;;;;8.03;2.00;;;;;;;;;;5064367;28;20193;-26
2023/01/02 14:09:26;;;;;;;7.10;1.97;;;;;;;;;;5071471;28;20212;-29
2023/01/02 14:11:55;;;;;;;3.17;1.80;;;;;;;;;;5070928;28;20236;-24
2023/01/02 14:14:24;;;;;;;3.50;2.10;;;;;;;;;;5057061;28;20221;-27
2023/01/02 14:16:57;;;;;;;6.00;2.30;;;;;;;;;;5064860;28;20217;-25
2023/01/02 14:19:25;;;;;;;7.10;2.10;;;;;;;;;;5072150;28;20198;-26
2023/01/02 14:21:54;;;;;;;5.70;2.57;;;;;;;;;;5069257;28;20229;-25
2023/01/02 14:24:27;;;;;;;6.83;2.10;;;;;;;;;;5064416;28;20210;-24
2023/01/02 14:26:56;;;;;;;4.33;2.17;;;;;;;;;;5069380;28;20235;-31
2023/01/02 14:29:24;;;;;;;6.67;2.83;;;;;;;;;;5063439;28;20209;-24
2023/01/02 14:31:58;;;;;;;3.83;1.97;;;;;;;;;;5072644;28;20213;-26
2023/01/02 14:34:26;;;;;;;5.80;2.03;;;;;;;;;;5072911;28;20193;-25
2023/01/02 14:36:56;;;;;;;7.27;2.00;;;;;;;;;;5064438;28;20221;-26
2023/01/02 14:39:45;;;;;;;5.83;1.80;;;;;;;;;;5065649;28;20201;-24
2023/01/02 14:45:19;;;;;;;6.90;2.07;;;;;;;;;;5053668;28;20200;-27
2023/01/02 14:47:47;;;;;;;7.63;2.10;;;;;;;;;;5062782;28;20221;-26
2023/01/02 14:50:16;;;;;;;6.50;1.90;;;;;;;;;;5073011;28;20205;-26
2023/01/02 14:52:45;;;;;;;8.73;1.87;;;;;;;;;;5072124;28;20225;-26
2023/01/02 14:55:15;;;;;;;8.67;2.17;;;;;;;;;;5070110;28;20205;-26
2023/01/02 14:57:43;;;;;;;5.53;1.80;;;;;;;;;;5066911;28;20221;-25
2023/01/02 15:00:19;;;;;;;4.87;1.97;;;;;;;;;;5067824;28;20207;-27
2023/01/02 15:02:47;;;;;;;8.27;2.23;;;;;;;;;;5071380;28;20250;-27